CheckWX is a tool to help pilots better visualize weather data.  It is not intended as a substitute for an official pre-flight weather briefing.

04:13:53 UTC

1A6 METAR
Middlesboro-Bell County Airport
Middlesboro, Kentucky, USA
Current

19 mins ago

K1A6 240355Z AUTO 00000KT 10SM BKN060 OVC070 07/04 A3005 RMK AO2 T00650035
Observed
Jan-24 @ 03:55 UTC
Visibility
10 SM
Flight Rules
VFR
Cloud Levels
  • Broken at 6,000' AGL
  • Overcast at 7,000' AGL
Temperature
C / 45°F
Dewpoint
C / 39°F
Humidity
81%
Altimeter
30.05" Hg
Pressure
1017.62 hPa
Previous

39 mins ago

K1A6 240335Z AUTO 00000KT 10SM OVC060 07/03 A3005 RMK AO2 T00650030
Observed
Jan-24 @ 03:35 UTC
Visibility
10 SM
Flight Rules
VFR
Cloud Levels
  • Overcast at 6,000' AGL
Temperature
C / 45°F
Dewpoint
C / 37°F
Humidity
76%
Altimeter
30.05" Hg
Pressure
1017.62 hPa
Previous

59 mins ago

K1A6 240315Z AUTO 00000KT 10SM -DZ OVC060 06/03 A3005 RMK AO2 T00620031
Observed
Jan-24 @ 03:15 UTC
Visibility
10 SM
Flight Rules
VFR
Conditions
Light Drizzle
Cloud Levels
  • Overcast at 6,000' AGL
Temperature
C / 43°F
Dewpoint
C / 37°F
Humidity
81%
Altimeter
30.05" Hg
Pressure
1017.62 hPa